sensor_id;sensor_type;location;lat;lon;timestamp;P1;durP1;ratioP1;P2;durP2;ratioP2
9964;SDS011;5023;53.554;9.964;2023-01-30T00:02:30;44.40;;;28.73;;
9964;SDS011;5023;53.554;9.964;2023-01-30T00:07:32;42.10;;;28.97;;
9964;SDS011;5023;53.554;9.964;2023-01-30T00:12:34;48.13;;;30.10;;
9964;SDS011;5023;53.554;9.964;2023-01-30T00:17:39;45.87;;;29.93;;
9964;SDS011;5023;53.554;9.964;2023-01-30T00:22:41;44.73;;;30.60;;
9964;SDS011;5023;53.554;9.964;2023-01-30T00:27:43;46.60;;;30.77;;
9964;SDS011;5023;53.554;9.964;2023-01-30T00:32:46;46.57;;;28.80;;
9964;SDS011;5023;53.554;9.964;2023-01-30T00:37:48;44.13;;;30.47;;
9964;SDS011;5023;53.554;9.964;2023-01-30T00:42:51;44.30;;;29.80;;
9964;SDS011;5023;53.554;9.964;2023-01-30T00:48:11;44.80;;;28.43;;
9964;SDS011;5023;53.554;9.964;2023-01-30T00:53:14;41.30;;;27.23;;
9964;SDS011;5023;53.554;9.964;2023-01-30T00:58:17;41.57;;;26.97;;
9964;SDS011;5023;53.554;9.964;2023-01-30T01:03:21;39.80;;;26.30;;
9964;SDS011;5023;53.554;9.964;2023-01-30T01:08:23;41.20;;;26.17;;
9964;SDS011;5023;53.554;9.964;2023-01-30T01:13:25;42.93;;;27.27;;
9964;SDS011;5023;53.554;9.964;2023-01-30T01:18:29;40.73;;;25.70;;
9964;SDS011;5023;53.554;9.964;2023-01-30T01:23:32;40.03;;;26.63;;
9964;SDS011;5023;53.554;9.964;2023-01-30T01:28:34;37.20;;;25.00;;
9964;SDS011;5023;53.554;9.964;2023-01-30T01:33:38;38.93;;;25.00;;
9964;SDS011;5023;53.554;9.964;2023-01-30T01:38:40;35.53;;;24.60;;
9964;SDS011;5023;53.554;9.964;2023-01-30T01:43:57;37.27;;;25.70;;
9964;SDS011;5023;53.554;9.964;2023-01-30T01:49:04;39.20;;;25.93;;
9964;SDS011;5023;53.554;9.964;2023-01-30T01:54:12;34.60;;;24.90;;
9964;SDS011;5023;53.554;9.964;2023-01-30T01:59:18;39.30;;;26.23;;
9964;SDS011;5023;53.554;9.964;2023-01-30T02:04:26;35.13;;;24.70;;
9964;SDS011;5023;53.554;9.964;2023-01-30T02:09:49;36.10;;;23.73;;
9964;SDS011;5023;53.554;9.964;2023-01-30T02:14:52;36.73;;;25.83;;
9964;SDS011;5023;53.554;9.964;2023-01-30T02:20:02;33.83;;;24.57;;
9964;SDS011;5023;53.554;9.964;2023-01-30T02:25:20;36.10;;;23.13;;
9964;SDS011;5023;53.554;9.964;2023-01-30T02:30:53;34.83;;;23.27;;
9964;SDS011;5023;53.554;9.964;2023-01-30T02:36:19;31.83;;;22.83;;
9964;SDS011;5023;53.554;9.964;2023-01-30T02:41:27;30.70;;;22.03;;
9964;SDS011;5023;53.554;9.964;2023-01-30T02:46:40;29.10;;;19.80;;
9964;SDS011;5023;53.554;9.964;2023-01-30T02:51:51;29.53;;;19.93;;
9964;SDS011;5023;53.554;9.964;2023-01-30T02:56:57;27.47;;;19.60;;
9964;SDS011;5023;53.554;9.964;2023-01-30T03:02:04;27.07;;;19.23;;
9964;SDS011;5023;53.554;9.964;2023-01-30T03:07:26;25.70;;;16.77;;
9964;SDS011;5023;53.554;9.964;2023-01-30T03:12:40;22.50;;;16.60;;
9964;SDS011;5023;53.554;9.964;2023-01-30T03:17:50;20.73;;;15.97;;
9964;SDS011;5023;53.554;9.964;2023-01-30T03:22:54;20.03;;;15.20;;
9964;SDS011;5023;53.554;9.964;2023-01-30T03:27:56;21.07;;;15.07;;
9964;SDS011;5023;53.554;9.964;2023-01-30T03:33:01;20.13;;;14.87;;
9964;SDS011;5023;53.554;9.964;2023-01-30T03:38:03;18.80;;;14.33;;
9964;SDS011;5023;53.554;9.964;2023-01-30T03:43:05;18.53;;;13.63;;
9964;SDS011;5023;53.554;9.964;2023-01-30T03:48:09;18.13;;;13.07;;
9964;SDS011;5023;53.554;9.964;2023-01-30T03:53:11;14.63;;;12.27;;
9964;SDS011;5023;53.554;9.964;2023-01-30T03:58:13;16.27;;;12.70;;
9964;SDS011;5023;53.554;9.964;2023-01-30T04:03:16;16.67;;;12.00;;
9964;SDS011;5023;53.554;9.964;2023-01-30T04:08:19;15.70;;;11.93;;
9964;SDS011;5023;53.554;9.964;2023-01-30T04:13:21;18.53;;;12.37;;
9964;SDS011;5023;53.554;9.964;2023-01-30T04:18:25;17.50;;;11.50;;
9964;SDS011;5023;53.554;9.964;2023-01-30T04:23:27;13.57;;;10.00;;
9964;SDS011;5023;53.554;9.964;2023-01-30T04:28:29;11.27;;;8.37;;
9964;SDS011;5023;53.554;9.964;2023-01-30T04:33:32;7.90;;;6.47;;
9964;SDS011;5023;53.554;9.964;2023-01-30T04:38:34;8.33;;;6.50;;
9964;SDS011;5023;53.554;9.964;2023-01-30T04:43:37;9.50;;;6.33;;
9964;SDS011;5023;53.554;9.964;2023-01-30T04:48:40;10.17;;;5.97;;
9964;SDS011;5023;53.554;9.964;2023-01-30T04:53:42;8.67;;;6.13;;
9964;SDS011;5023;53.554;9.964;2023-01-30T04:58:44;6.10;;;4.30;;
9964;SDS011;5023;53.554;9.964;2023-01-30T05:03:49;6.30;;;3.60;;
9964;SDS011;5023;53.554;9.964;2023-01-30T05:08:52;5.80;;;4.20;;
9964;SDS011;5023;53.554;9.964;2023-01-30T05:13:57;9.93;;;3.50;;
9964;SDS011;5023;53.554;9.964;2023-01-30T05:19:00;13.33;;;3.47;;
9964;SDS011;5023;53.554;9.964;2023-01-30T05:24:02;7.53;;;3.20;;
9964;SDS011;5023;53.554;9.964;2023-01-30T05:29:05;7.80;;;3.00;;
9964;SDS011;5023;53.554;9.964;2023-01-30T05:34:12;7.77;;;3.00;;
9964;SDS011;5023;53.554;9.964;2023-01-30T05:39:14;8.80;;;2.83;;
9964;SDS011;5023;53.554;9.964;2023-01-30T05:44:16;5.47;;;2.47;;
9964;SDS011;5023;53.554;9.964;2023-01-30T05:49:19;5.87;;;2.30;;
9964;SDS011;5023;53.554;9.964;2023-01-30T05:54:21;8.00;;;1.90;;
9964;SDS011;5023;53.554;9.964;2023-01-30T05:59:23;6.30;;;2.20;;
9964;SDS011;5023;53.554;9.964;2023-01-30T06:04:27;8.53;;;2.20;;
9964;SDS011;5023;53.554;9.964;2023-01-30T06:09:29;8.07;;;2.20;;
9964;SDS011;5023;53.554;9.964;2023-01-30T06:14:31;7.33;;;2.10;;
9964;SDS011;5023;53.554;9.964;2023-01-30T06:19:34;11.60;;;6.60;;
9964;SDS011;5023;53.554;9.964;2023-01-30T06:24:36;7.63;;;2.30;;
9964;SDS011;5023;53.554;9.964;2023-01-30T06:29:38;8.17;;;2.10;;
9964;SDS011;5023;53.554;9.964;2023-01-30T06:34:42;8.97;;;2.47;;
9964;SDS011;5023;53.554;9.964;2023-01-30T06:39:44;10.10;;;2.87;;
9964;SDS011;5023;53.554;9.964;2023-01-30T06:44:46;12.00;;;2.70;;
9964;SDS011;5023;53.554;9.964;2023-01-30T06:49:51;9.70;;;2.53;;
9964;SDS011;5023;53.554;9.964;2023-01-30T06:54:53;8.10;;;2.20;;
9964;SDS011;5023;53.554;9.964;2023-01-30T06:59:56;11.87;;;2.60;;
9964;SDS011;5023;53.554;9.964;2023-01-30T07:05:00;11.73;;;2.63;;
9964;SDS011;5023;53.554;9.964;2023-01-30T07:10:03;12.67;;;2.93;;
9964;SDS011;5023;53.554;9.964;2023-01-30T07:15:07;9.10;;;2.33;;
9964;SDS011;5023;53.554;9.964;2023-01-30T07:20:11;11.67;;;2.90;;
9964;SDS011;5023;53.554;9.964;2023-01-30T07:25:13;9.33;;;2.30;;
9964;SDS011;5023;53.554;9.964;2023-01-30T07:30:16;16.20;;;3.40;;
9964;SDS011;5023;53.554;9.964;2023-01-30T07:35:20;14.90;;;3.17;;
9964;SDS011;5023;53.554;9.964;2023-01-30T07:40:23;11.60;;;3.20;;
9964;SDS011;5023;53.554;9.964;2023-01-30T07:45:26;16.17;;;3.67;;
9964;SDS011;5023;53.554;9.964;2023-01-30T07:50:33;17.60;;;4.17;;
9964;SDS011;5023;53.554;9.964;2023-01-30T07:55:35;21.57;;;5.10;;
9964;SDS011;5023;53.554;9.964;2023-01-30T08:00:37;16.17;;;4.07;;
9964;SDS011;5023;53.554;9.964;2023-01-30T08:05:40;19.30;;;4.63;;
9964;SDS011;5023;53.554;9.964;2023-01-30T08:10:43;15.53;;;4.73;;
9964;SDS011;5023;53.554;9.964;2023-01-30T08:15:46;27.03;;;4.57;;
9964;SDS011;5023;53.554;9.964;2023-01-30T08:20:49;21.93;;;4.43;;
9964;SDS011;5023;53.554;9.964;2023-01-30T08:25:53;21.70;;;5.03;;
9964;SDS011;5023;53.554;9.964;2023-01-30T08:30:55;20.63;;;4.57;;
9964;SDS011;5023;53.554;9.964;2023-01-30T08:35:58;19.57;;;4.83;;
9964;SDS011;5023;53.554;9.964;2023-01-30T08:41:02;21.90;;;4.50;;
9964;SDS011;5023;53.554;9.964;2023-01-30T08:46:05;26.87;;;6.23;;
9964;SDS011;5023;53.554;9.964;2023-01-30T08:51:10;23.57;;;5.07;;
9964;SDS011;5023;53.554;9.964;2023-01-30T08:56:12;18.00;;;4.93;;
9964;SDS011;5023;53.554;9.964;2023-01-30T09:01:14;24.93;;;5.87;;
9964;SDS011;5023;53.554;9.964;2023-01-30T09:06:19;22.87;;;4.80;;
9964;SDS011;5023;53.554;9.964;2023-01-30T09:11:48;21.90;;;4.90;;
9964;SDS011;5023;53.554;9.964;2023-01-30T09:16:50;19.90;;;4.63;;
9964;SDS011;5023;53.554;9.964;2023-01-30T09:21:55;16.63;;;4.73;;
9964;SDS011;5023;53.554;9.964;2023-01-30T09:26:58;19.13;;;4.77;;
9964;SDS011;5023;53.554;9.964;2023-01-30T09:32:00;14.63;;;4.70;;
9964;SDS011;5023;53.554;9.964;2023-01-30T09:37:02;24.23;;;4.60;;
9964;SDS011;5023;53.554;9.964;2023-01-30T09:42:12;23.90;;;5.63;;
9964;SDS011;5023;53.554;9.964;2023-01-30T09:47:31;20.77;;;4.60;;
9964;SDS011;5023;53.554;9.964;2023-01-30T09:52:42;17.40;;;5.07;;
9964;SDS011;5023;53.554;9.964;2023-01-30T09:57:55;28.37;;;5.47;;
9964;SDS011;5023;53.554;9.964;2023-01-30T10:03:00;21.97;;;5.30;;
9964;SDS011;5023;53.554;9.964;2023-01-30T10:08:10;24.97;;;4.63;;
9964;SDS011;5023;53.554;9.964;2023-01-30T10:13:27;19.90;;;5.07;;
9964;SDS011;5023;53.554;9.964;2023-01-30T10:18:53;20.97;;;4.73;;
9964;SDS011;5023;53.554;9.964;2023-01-30T10:24:12;14.67;;;4.70;;
9964;SDS011;5023;53.554;9.964;2023-01-30T10:29:25;25.37;;;6.17;;
9964;SDS011;5023;53.554;9.964;2023-01-30T10:34:31;12.00;;;3.37;;
9964;SDS011;5023;53.554;9.964;2023-01-30T10:39:35;7.30;;;2.37;;
9964;SDS011;5023;53.554;9.964;2023-01-30T10:44:46;17.53;;;4.33;;
9964;SDS011;5023;53.554;9.964;2023-01-30T10:49:51;18.50;;;4.37;;
9964;SDS011;5023;53.554;9.964;2023-01-30T10:54:59;19.30;;;4.00;;
9964;SDS011;5023;53.554;9.964;2023-01-30T11:00:11;16.50;;;3.97;;
9964;SDS011;5023;53.554;9.964;2023-01-30T11:05:23;12.57;;;2.90;;
9964;SDS011;5023;53.554;9.964;2023-01-30T11:10:39;9.03;;;2.40;;
9964;SDS011;5023;53.554;9.964;2023-01-30T11:15:43;10.57;;;3.00;;
9964;SDS011;5023;53.554;9.964;2023-01-30T11:20:59;13.27;;;3.17;;
9964;SDS011;5023;53.554;9.964;2023-01-30T11:26:04;12.03;;;2.50;;
9964;SDS011;5023;53.554;9.964;2023-01-30T11:31:13;6.57;;;1.40;;
9964;SDS011;5023;53.554;9.964;2023-01-30T11:36:23;5.50;;;1.50;;
9964;SDS011;5023;53.554;9.964;2023-01-30T11:41:28;6.63;;;1.90;;
9964;SDS011;5023;53.554;9.964;2023-01-30T11:46:32;5.67;;;1.80;;
9964;SDS011;5023;53.554;9.964;2023-01-30T11:51:37;7.00;;;2.13;;
9964;SDS011;5023;53.554;9.964;2023-01-30T11:56:48;7.27;;;2.80;;
9964;SDS011;5023;53.554;9.964;2023-01-30T12:02:02;11.03;;;3.30;;
9964;SDS011;5023;53.554;9.964;2023-01-30T12:07:15;11.33;;;3.00;;
9964;SDS011;5023;53.554;9.964;2023-01-30T12:12:28;9.63;;;2.73;;
9964;SDS011;5023;53.554;9.964;2023-01-30T12:17:37;11.93;;;3.30;;
9964;SDS011;5023;53.554;9.964;2023-01-30T12:22:48;12.67;;;2.80;;
9964;SDS011;5023;53.554;9.964;2023-01-30T12:28:00;10.40;;;3.23;;
9964;SDS011;5023;53.554;9.964;2023-01-30T12:33:09;13.90;;;2.63;;
9964;SDS011;5023;53.554;9.964;2023-01-30T12:44:14;9.90;;;2.53;;
9964;SDS011;5023;53.554;9.964;2023-01-30T12:49:36;15.83;;;4.30;;
9964;SDS011;5023;53.554;9.964;2023-01-30T12:54:48;17.73;;;4.03;;
9964;SDS011;5023;53.554;9.964;2023-01-30T13:00:02;15.93;;;4.20;;
9964;SDS011;5023;53.554;9.964;2023-01-30T13:05:30;20.40;;;4.77;;
9964;SDS011;5023;53.554;9.964;2023-01-30T13:10:42;19.03;;;4.30;;
9964;SDS011;5023;53.554;9.964;2023-01-30T13:15:52;26.47;;;5.10;;
9964;SDS011;5023;53.554;9.964;2023-01-30T13:21:04;21.40;;;6.73;;
9964;SDS011;5023;53.554;9.964;2023-01-30T13:26:12;16.97;;;4.47;;
9964;SDS011;5023;53.554;9.964;2023-01-30T13:31:18;19.50;;;5.17;;
9964;SDS011;5023;53.554;9.964;2023-01-30T13:36:24;17.20;;;4.27;;
9964;SDS011;5023;53.554;9.964;2023-01-30T13:41:35;15.17;;;4.20;;
9964;SDS011;5023;53.554;9.964;2023-01-30T13:46:39;16.97;;;4.50;;
9964;SDS011;5023;53.554;9.964;2023-01-30T13:51:47;16.73;;;3.53;;
9964;SDS011;5023;53.554;9.964;2023-01-30T13:56:53;15.63;;;3.93;;
9964;SDS011;5023;53.554;9.964;2023-01-30T14:02:07;19.60;;;4.37;;
9964;SDS011;5023;53.554;9.964;2023-01-30T14:07:21;13.77;;;3.63;;
9964;SDS011;5023;53.554;9.964;2023-01-30T14:12:31;24.10;;;5.23;;
9964;SDS011;5023;53.554;9.964;2023-01-30T14:17:35;19.70;;;4.87;;
9964;SDS011;5023;53.554;9.964;2023-01-30T14:22:40;19.90;;;4.47;;
9964;SDS011;5023;53.554;9.964;2023-01-30T14:27:51;25.87;;;6.10;;
9964;SDS011;5023;53.554;9.964;2023-01-30T14:32:55;19.17;;;4.67;;
9964;SDS011;5023;53.554;9.964;2023-01-30T14:43:37;23.13;;;5.20;;
9964;SDS011;5023;53.554;9.964;2023-01-30T14:48:50;26.80;;;5.00;;
9964;SDS011;5023;53.554;9.964;2023-01-30T14:53:59;18.63;;;4.30;;
9964;SDS011;5023;53.554;9.964;2023-01-30T14:59:04;18.50;;;3.97;;
9964;SDS011;5023;53.554;9.964;2023-01-30T15:04:10;21.10;;;5.07;;
9964;SDS011;5023;53.554;9.964;2023-01-30T15:09:24;17.50;;;4.00;;
9964;SDS011;5023;53.554;9.964;2023-01-30T15:14:29;16.93;;;4.70;;
9964;SDS011;5023;53.554;9.964;2023-01-30T15:19:51;18.50;;;5.27;;
9964;SDS011;5023;53.554;9.964;2023-01-30T15:25:28;19.80;;;4.77;;
9964;SDS011;5023;53.554;9.964;2023-01-30T15:30:43;24.60;;;5.37;;
9964;SDS011;5023;53.554;9.964;2023-01-30T15:35:59;20.33;;;5.60;;
9964;SDS011;5023;53.554;9.964;2023-01-30T15:41:20;21.60;;;5.63;;
9964;SDS011;5023;53.554;9.964;2023-01-30T15:46:24;22.83;;;6.00;;
9964;SDS011;5023;53.554;9.964;2023-01-30T15:51:33;28.23;;;5.20;;
9964;SDS011;5023;53.554;9.964;2023-01-30T15:56:37;20.30;;;4.70;;
9964;SDS011;5023;53.554;9.964;2023-01-30T16:01:41;23.63;;;6.33;;
9964;SDS011;5023;53.554;9.964;2023-01-30T16:06:43;22.17;;;5.83;;
9964;SDS011;5023;53.554;9.964;2023-01-30T16:11:47;21.90;;;5.63;;
9964;SDS011;5023;53.554;9.964;2023-01-30T16:16:50;21.80;;;4.37;;
9964;SDS011;5023;53.554;9.964;2023-01-30T16:21:54;21.87;;;5.00;;
9964;SDS011;5023;53.554;9.964;2023-01-30T16:27:04;21.10;;;5.63;;
9964;SDS011;5023;53.554;9.964;2023-01-30T16:32:10;25.73;;;6.00;;
9964;SDS011;5023;53.554;9.964;2023-01-30T16:37:23;19.17;;;4.93;;
9964;SDS011;5023;53.554;9.964;2023-01-30T16:42:30;23.17;;;4.67;;
9964;SDS011;5023;53.554;9.964;2023-01-30T16:47:33;24.70;;;5.43;;
9964;SDS011;5023;53.554;9.964;2023-01-30T16:52:37;18.00;;;4.90;;
9964;SDS011;5023;53.554;9.964;2023-01-30T16:57:50;26.30;;;5.50;;
9964;SDS011;5023;53.554;9.964;2023-01-30T17:02:55;24.63;;;5.13;;
9964;SDS011;5023;53.554;9.964;2023-01-30T17:08:00;15.43;;;4.10;;
9964;SDS011;5023;53.554;9.964;2023-01-30T17:13:09;15.13;;;4.13;;
9964;SDS011;5023;53.554;9.964;2023-01-30T17:18:36;23.20;;;5.00;;
9964;SDS011;5023;53.554;9.964;2023-01-30T17:23:39;16.73;;;4.80;;
9964;SDS011;5023;53.554;9.964;2023-01-30T17:28:46;17.20;;;3.80;;
9964;SDS011;5023;53.554;9.964;2023-01-30T17:33:48;12.10;;;3.03;;
9964;SDS011;5023;53.554;9.964;2023-01-30T17:38:53;11.87;;;3.40;;
9964;SDS011;5023;53.554;9.964;2023-01-30T17:44:00;13.77;;;3.63;;
9964;SDS011;5023;53.554;9.964;2023-01-30T17:49:02;13.13;;;3.33;;
9964;SDS011;5023;53.554;9.964;2023-01-30T17:54:05;18.83;;;5.03;;
9964;SDS011;5023;53.554;9.964;2023-01-30T17:59:12;9.67;;;3.10;;
9964;SDS011;5023;53.554;9.964;2023-01-30T18:04:16;16.57;;;4.23;;
9964;SDS011;5023;53.554;9.964;2023-01-30T18:09:23;19.13;;;4.20;;
9964;SDS011;5023;53.554;9.964;2023-01-30T18:14:29;23.57;;;5.47;;
9964;SDS011;5023;53.554;9.964;2023-01-30T18:19:32;26.80;;;10.23;;
9964;SDS011;5023;53.554;9.964;2023-01-30T18:24:34;20.37;;;4.17;;
9964;SDS011;5023;53.554;9.964;2023-01-30T18:29:39;20.37;;;4.63;;
9964;SDS011;5023;53.554;9.964;2023-01-30T18:34:41;19.50;;;3.87;;
9964;SDS011;5023;53.554;9.964;2023-01-30T18:39:46;19.80;;;5.07;;
9964;SDS011;5023;53.554;9.964;2023-01-30T18:44:49;18.33;;;4.43;;
9964;SDS011;5023;53.554;9.964;2023-01-30T18:49:52;15.30;;;4.27;;
9964;SDS011;5023;53.554;9.964;2023-01-30T18:54:54;21.70;;;4.43;;
9964;SDS011;5023;53.554;9.964;2023-01-30T18:59:58;17.60;;;4.43;;
9964;SDS011;5023;53.554;9.964;2023-01-30T19:05:04;13.20;;;3.60;;
9964;SDS011;5023;53.554;9.964;2023-01-30T19:10:08;17.13;;;4.10;;
9964;SDS011;5023;53.554;9.964;2023-01-30T19:15:17;19.30;;;3.60;;
9964;SDS011;5023;53.554;9.964;2023-01-30T19:20:20;14.60;;;3.63;;
9964;SDS011;5023;53.554;9.964;2023-01-30T19:25:24;12.07;;;3.63;;
9964;SDS011;5023;53.554;9.964;2023-01-30T19:30:28;12.57;;;2.70;;
9964;SDS011;5023;53.554;9.964;2023-01-30T19:35:44;16.97;;;3.80;;
9964;SDS011;5023;53.554;9.964;2023-01-30T19:40:46;13.37;;;2.97;;
9964;SDS011;5023;53.554;9.964;2023-01-30T19:45:54;10.67;;;3.13;;
9964;SDS011;5023;53.554;9.964;2023-01-30T19:50:58;18.40;;;3.70;;
9964;SDS011;5023;53.554;9.964;2023-01-30T19:56:04;17.87;;;4.53;;
9964;SDS011;5023;53.554;9.964;2023-01-30T20:01:14;13.93;;;3.60;;
9964;SDS011;5023;53.554;9.964;2023-01-30T20:06:19;12.67;;;3.33;;
9964;SDS011;5023;53.554;9.964;2023-01-30T20:11:23;12.97;;;3.60;;
9964;SDS011;5023;53.554;9.964;2023-01-30T20:16:26;14.33;;;3.97;;
9964;SDS011;5023;53.554;9.964;2023-01-30T20:21:30;14.87;;;4.30;;
9964;SDS011;5023;53.554;9.964;2023-01-30T20:26:34;18.13;;;3.80;;
9964;SDS011;5023;53.554;9.964;2023-01-30T20:31:40;14.13;;;3.90;;
9964;SDS011;5023;53.554;9.964;2023-01-30T20:36:45;15.77;;;3.60;;
9964;SDS011;5023;53.554;9.964;2023-01-30T20:41:47;13.77;;;4.03;;
9964;SDS011;5023;53.554;9.964;2023-01-30T20:46:51;15.43;;;3.37;;
9964;SDS011;5023;53.554;9.964;2023-01-30T20:51:53;18.00;;;3.97;;
9964;SDS011;5023;53.554;9.964;2023-01-30T20:56:55;14.30;;;3.57;;
9964;SDS011;5023;53.554;9.964;2023-01-30T21:01:59;13.83;;;3.90;;
9964;SDS011;5023;53.554;9.964;2023-01-30T21:07:01;10.17;;;3.30;;
9964;SDS011;5023;53.554;9.964;2023-01-30T21:12:03;11.90;;;3.30;;
9964;SDS011;5023;53.554;9.964;2023-01-30T21:17:07;9.07;;;2.93;;
9964;SDS011;5023;53.554;9.964;2023-01-30T21:22:10;12.97;;;3.13;;
9964;SDS011;5023;53.554;9.964;2023-01-30T21:27:12;14.87;;;3.43;;
9964;SDS011;5023;53.554;9.964;2023-01-30T21:32:16;11.07;;;3.77;;
9964;SDS011;5023;53.554;9.964;2023-01-30T21:37:18;15.87;;;3.40;;
9964;SDS011;5023;53.554;9.964;2023-01-30T21:42:38;12.07;;;3.60;;
9964;SDS011;5023;53.554;9.964;2023-01-30T21:47:59;12.13;;;2.80;;
9964;SDS011;5023;53.554;9.964;2023-01-30T21:53:01;14.17;;;3.10;;
9964;SDS011;5023;53.554;9.964;2023-01-30T21:58:03;15.37;;;3.27;;
9964;SDS011;5023;53.554;9.964;2023-01-30T22:03:07;16.77;;;3.57;;
9964;SDS011;5023;53.554;9.964;2023-01-30T22:08:09;10.30;;;3.20;;
9964;SDS011;5023;53.554;9.964;2023-01-30T22:13:12;9.80;;;2.83;;
9964;SDS011;5023;53.554;9.964;2023-01-30T22:18:15;12.50;;;3.80;;
9964;SDS011;5023;53.554;9.964;2023-01-30T22:23:17;12.43;;;3.10;;
9964;SDS011;5023;53.554;9.964;2023-01-30T22:28:19;9.23;;;2.47;;
9964;SDS011;5023;53.554;9.964;2023-01-30T22:33:24;10.53;;;2.57;;
9964;SDS011;5023;53.554;9.964;2023-01-30T22:38:26;9.90;;;2.20;;
9964;SDS011;5023;53.554;9.964;2023-01-30T22:43:29;10.40;;;2.20;;
9964;SDS011;5023;53.554;9.964;2023-01-30T22:48:33;8.80;;;2.40;;
9964;SDS011;5023;53.554;9.964;2023-01-30T22:53:36;6.20;;;2.10;;
9964;SDS011;5023;53.554;9.964;2023-01-30T22:58:39;8.93;;;3.07;;
9964;SDS011;5023;53.554;9.964;2023-01-30T23:03:44;10.53;;;2.80;;
9964;SDS011;5023;53.554;9.964;2023-01-30T23:08:47;10.17;;;2.43;;
9964;SDS011;5023;53.554;9.964;2023-01-30T23:13:50;13.47;;;2.83;;
9964;SDS011;5023;53.554;9.964;2023-01-30T23:18:55;10.43;;;2.73;;
9964;SDS011;5023;53.554;9.964;2023-01-30T23:23:59;11.13;;;3.20;;
9964;SDS011;5023;53.554;9.964;2023-01-30T23:29:04;7.67;;;2.60;;
9964;SDS011;5023;53.554;9.964;2023-01-30T23:34:11;15.23;;;3.07;;
9964;SDS011;5023;53.554;9.964;2023-01-30T23:39:14;10.80;;;3.07;;
9964;SDS011;5023;53.554;9.964;2023-01-30T23:44:16;13.57;;;3.33;;
9964;SDS011;5023;53.554;9.964;2023-01-30T23:49:21;14.60;;;3.47;;
9964;SDS011;5023;53.554;9.964;2023-01-30T23:54:23;9.40;;;2.93;;
9964;SDS011;5023;53.554;9.964;2023-01-30T23:59:25;13.23;;;2.87;;
